This is the latest recevied weather packets stored in our database for station/object F4AMY-13. If no packets are shown the sender has not sent any weather packets the latest 10 day(s).
| Time | Temp. | Humidity | Pressure | Rain* | Wind** | Luminosity | Snow |
|---|---|---|---|---|---|---|---|
| 1777647442 | 26.67° C | 39% | 1021.3 hPa | 0 mm | 150.65 m/s, ° | 337 W/m² | - |
| 1777647142 | 26.11° C | 39% | 1021 hPa | 0 mm | 147.08 m/s, ° | 329 W/m² | - |
| 1777646842 | 26.11° C | 39% | 1021.3 hPa | 0 mm | 140.37 m/s, ° | 314 W/m² | - |
| 1777646542 | 26.11° C | 38% | 1021.3 hPa | 0 mm | 136.35 m/s, ° | 305 W/m² | - |
| 1777646242 | 25.56° C | 39% | 1021.2 hPa | 0 mm | 136.35 m/s, ° | 305 W/m² | - |
| 1777645942 | 26.11° C | 37% | 1021.3 hPa | 0 mm | 128.75 m/s, ° | 288 W/m² | - |
| 1777645642 | 25.56° C | 37% | 1021.1 hPa | 0 mm | 151.55 m/s, ° | 339 W/m² | - |
| 1777645342 | 26.11° C | 40% | 1021.2 hPa | 0 mm | 142.16 m/s, ° | 318 W/m² | - |
| 1777645042 | 26.11° C | 39% | 1021.1 hPa | 0 mm | 122.49 m/s, ° | 274 W/m² | - |
| 1777644742 | 26.67° C | 38% | 1021.3 hPa | 0 mm | 115.34 m/s, ° | 258 W/m² | - |
| 1777644441 | 26.67° C | 39% | 1021.4 hPa | 0 mm | 118.47 m/s, ° | 265 W/m² | - |
| 1777644141 | 26.67° C | 36% | 1021.2 hPa | 0 mm | 126.51 m/s, ° | 283 W/m² | - |
| 1777643841 | 26.67° C | 39% | 1021.3 hPa | 0 mm | 135.9 m/s, ° | 304 W/m² | - |
| 1777643541 | 26.67° C | 36% | 1021.4 hPa | 0 mm | 155.57 m/s, ° | 348 W/m² | - |
| 1777643241 | 26.67° C | 37% | 1021.4 hPa | 0 mm | 164.06 m/s, ° | 367 W/m² | - |
| 1777642941 | 26.67° C | 39% | 1021.2 hPa | 0 mm | 161.38 m/s, ° | 361 W/m² | - |
| 1777642641 | 26.67° C | 39% | 1021.3 hPa | 0 mm | 149.31 m/s, ° | 334 W/m² | - |
| 1777642341 | 26.67° C | 38% | 1021.5 hPa | 0 mm | 154.68 m/s, ° | 346 W/m² | - |
| 1777642041 | 26.67° C | 40% | 1021.2 hPa | 0 mm | 167.64 m/s, ° | 375 W/m² | - |
| 1777641741 | 26.67° C | 40% | 1021.2 hPa | 0 mm | 174.35 m/s, ° | 390 W/m² | - |
| 1777641441 | 26.11° C | 43% | 1021.4 hPa | 0 mm | 170.77 m/s, ° | 382 W/m² | - |
| 1777641141 | 26.11° C | 40% | 1021.7 hPa | 0 mm | 163.17 m/s, ° | 365 W/m² | - |
| 1777640841 | 26.11° C | 34% | 1021.4 hPa | 0 mm | 160.49 m/s, ° | 359 W/m² | - |
| 1777640541 | 26.11° C | 38% | 1021.5 hPa | 0 mm | 171.22 m/s, ° | 383 W/m² | - |
| 1777640241 | 26.11° C | 33% | 1021.2 hPa | 0 mm | 157.81 m/s, ° | 353 W/m² | - |
* Rain latest hour (hover to see other rain measurements)
** Current wind speed in m/s (hover to see current wind gust speed)